LZTT/TAT METAR and TAF weather

Enter ICAO airport designator
Station Type Date Time Source
LZTT METAR 2019/08/18 09:00 UTC NOAA

LZTT 180900Z 24014KT 9999 BKN050 21/13 Q1016 NOSIG


Station Type Date Time Source
LZTT Decoded METAR 2019/08/18 09:00 UTC NOAA

Station name not available
Aug 18, 2019 - 05:00 AM EDT / 2019.08.18 0900 UTC
Wind: from the WSW (240 degrees) at 16 MPH (14 KT):0
Visibility: greater than 7 mile(s):0
Sky conditions: mostly cloudy
Temperature: 69 F (21 C)
Dew Point: 55 F (13 C)
Relative Humidity: 60%
Pressure (altimeter): 30.00 in. Hg (1016 hPa)
ob: LZTT 180900Z 24014KT 9999 BKN050 21/13 Q1016 NOSIG
cycle: 9

Station Type Date Time Source
LZTT TAF 2019/08/18 06:51 UTC NOAA

TAF LZTT 180500Z 1806/1906 VRB02KT 9999 FEW045 BKN080 PROB30
TEMPO 1806/1810 -RA
BECMG 1807/1809 26007KT
BECMG 1810/1812 FEW066
TEMPO 1810/1816 27015KT
BECMG 1818/1820 22004KT

Example: see airport list